Time;durP1;ratioP1;P1;durP2;ratioP2;P2;SDS_P1;SDS_P2;PMS_P1;PMS_P2;Temp;Humidity;BMP_temperature;BMP_pressure;BME280_temperature;BME280_humidity;BME280_pressure;Samples;Min_cycle;Max_cycle;Signal;HPM_P1;HPM_P2
2023/03/14 00:00:50;;;;;;;3.00;2.80;;;;;;;11.20;72.39;98678.72;5095678;28;20190;-67
2023/03/14 00:03:16;;;;;;;2.57;2.53;;;;;;;11.15;72.58;98656.94;5096079;28;20216;-67
2023/03/14 00:05:43;;;;;;;2.60;2.50;;;;;;;11.12;73.20;98676.03;5095551;28;20186;-67
2023/03/14 00:08:09;;;;;;;2.83;2.47;;;;;;;11.11;73.15;98677.88;5095507;28;20666;-67
2023/03/14 00:10:37;;;;;;;5.90;2.87;;;;;;;11.16;72.75;98664.00;5095445;28;20185;-67
2023/03/14 00:13:03;;;;;;;4.37;2.40;;;;;;;11.11;73.14;98661.81;5095557;28;20220;-67
2023/03/14 00:15:32;;;;;;;2.10;2.00;;;;;;;11.09;73.18;98641.53;5095629;28;20197;-67
2023/03/14 00:17:59;;;;;;;2.30;2.13;;;;;;;11.06;73.37;98637.31;5095519;28;20190;-67
2023/03/14 00:20:25;;;;;;;3.30;2.47;;;;;;;11.06;73.32;98611.41;5095385;28;20606;-68
2023/03/14 00:22:51;;;;;;;5.90;2.23;;;;;;;10.99;73.39;98606.84;5095491;28;20205;-67
2023/03/14 00:25:18;;;;;;;2.40;2.20;;;;;;;11.01;72.61;98604.84;5095055;28;20194;-67
2023/03/14 00:27:44;;;;;;;7.83;2.20;;;;;;;11.00;73.25;98600.50;5095421;28;20178;-67
2023/03/14 00:30:12;;;;;;;3.50;2.50;;;;;;;10.95;73.53;98589.47;5095380;28;20201;-67
2023/03/14 00:32:38;;;;;;;1.90;1.83;;;;;;;10.98;73.10;98589.13;5076822;28;20210;-67
2023/03/14 00:35:05;;;;;;;9.17;3.93;;;;;;;10.99;73.49;98594.31;5094992;28;20190;-67
2023/03/14 00:37:32;;;;;;;2.40;2.30;;;;;;;10.97;73.00;98614.25;5094155;28;20652;-67
2023/03/14 00:39:58;;;;;;;2.47;2.33;;;;;;;11.05;73.03;98625.78;5094911;28;20189;-67
2023/03/14 00:42:24;;;;;;;6.83;2.50;;;;;;;11.02;72.92;98631.47;5095054;28;20216;-67
2023/03/14 00:44:51;;;;;;;2.63;2.47;;;;;;;11.11;73.18;98629.66;5076683;28;20197;-68
2023/03/14 00:47:17;;;;;;;2.20;2.03;;;;;;;11.10;73.37;98627.97;5095065;28;20220;-68
2023/03/14 00:49:44;;;;;;;3.50;2.57;;;;;;;11.22;72.73;98642.72;5095002;28;20182;-68
2023/03/14 00:52:11;;;;;;;10.03;2.60;;;;;;;11.31;72.54;98656.13;5094575;28;20207;-68
2023/03/14 00:54:37;;;;;;;5.73;2.17;;;;;;;11.39;72.50;98664.16;5094866;28;20604;-68
2023/03/14 00:57:03;;;;;;;4.80;1.90;;;;;;;11.22;75.57;98672.19;5095134;28;20178;-68
2023/03/14 00:59:30;;;;;;;2.00;1.90;;;;;;;10.98;77.80;98681.00;5076323;28;20308;-68
2023/03/14 01:01:56;;;;;;;3.03;2.10;;;;;;;10.82;79.57;98667.56;5094616;28;20300;-67
2023/03/14 01:04:23;;;;;;;12.83;2.33;;;;;;;10.62;81.59;98656.31;5076465;28;20194;-67
2023/03/14 01:06:49;;;;;;;1.73;1.70;;;;;;;10.41;82.06;98648.69;5094411;28;20182;-67
2023/03/14 01:09:17;;;;;;;1.40;1.30;;;;;;;10.27;82.63;98668.00;5076179;28;20200;-68
2023/03/14 01:11:46;;;;;;;5.67;2.13;;;;;;;10.07;83.50;98672.72;5076055;28;20214;-67
2023/03/14 01:14:13;;;;;;;3.07;2.03;;;;;;;10.01;83.20;98668.88;5094309;28;20245;-68
2023/03/14 01:16:39;;;;;;;1.53;1.43;;;;;;;9.85;83.32;98676.78;5094816;28;20233;-68
2023/03/14 01:19:05;;;;;;;3.10;1.30;;;;;;;9.80;83.14;98671.91;5094070;28;20206;-68
2023/03/14 01:21:34;;;;;;;1.20;1.20;;;;;;;9.75;83.72;98671.53;5094094;28;20617;-67
2023/03/14 01:24:02;;;;;;;1.67;1.60;;;;;;;9.82;83.66;98661.88;5075800;28;20668;-68
2023/03/14 01:26:32;;;;;;;1.57;1.40;;;;;;;9.65;83.85;98654.72;5076219;28;20193;-68
2023/03/14 01:28:59;;;;;;;1.43;1.40;;;;;;;9.63;84.16;98660.25;5075857;28;20221;-68
2023/03/14 01:31:26;;;;;;;1.30;1.30;;;;;;;9.61;84.08;98659.56;5075751;28;20556;-68
2023/03/14 01:33:53;;;;;;;1.60;1.60;;;;;;;9.54;84.08;98667.34;5075725;28;20201;-68
2023/03/14 01:36:20;;;;;;;4.27;1.47;;;;;;;9.63;84.35;98660.25;5075757;28;20200;-68
2023/03/14 01:38:46;;;;;;;2.13;1.93;;;;;;;9.64;84.05;98671.78;5075587;28;20202;-68
2023/03/14 01:41:18;;;;;;;1.63;1.50;;;;;;;9.56;84.26;98652.00;5075612;28;20549;-68
2023/03/14 01:43:45;;;;;;;2.63;1.50;;;;;;;9.57;84.18;98660.84;5075728;28;20190;-68
2023/03/14 01:46:41;;;;;;;5.20;2.00;;;;;;;9.50;84.43;98651.78;5075632;28;20189;-68
2023/03/14 01:49:12;;;;;;;2.10;1.90;;;;;;;9.45;84.64;98662.09;5075346;28;20189;-68
2023/03/14 01:51:45;;;;;;;2.13;1.70;;;;;;;9.53;84.11;98643.47;5076255;28;20588;-69
2023/03/14 01:54:16;;;;;;;2.43;1.17;;;;;;;9.44;84.45;98647.06;5075790;28;20194;-69
2023/03/14 01:56:47;;;;;;;1.47;1.47;;;;;;;9.42;84.84;98643.72;5075530;28;20721;-69
2023/03/14 01:59:13;;;;;;;1.40;1.30;;;;;;;9.37;85.05;98644.16;5075410;28;20304;-69
2023/03/14 02:01:44;;;;;;;1.97;1.97;;;;;;;9.40;85.14;98645.69;5075360;28;20210;-68
2023/03/14 02:04:11;;;;;;;1.30;1.30;;;;;;;9.34;84.86;98629.28;5075401;28;20192;-68
2023/03/14 02:06:52;;;;;;;7.00;1.33;;;;;;;9.39;84.57;98634.19;5059138;28;20284;-68
2023/03/14 02:09:22;;;;;;;1.50;1.40;;;;;;;9.38;84.60;98637.81;5075319;28;20230;-68
2023/03/14 02:11:49;;;;;;;2.97;1.70;;;;;;;9.34;84.80;98628.47;5075450;28;20672;-68
2023/03/14 02:14:38;;;;;;;1.53;1.40;;;;;;;9.39;84.82;98628.00;5075202;28;20667;-68
2023/03/14 02:17:31;;;;;;;1.90;1.57;;;;;;;9.43;83.99;98619.50;5089170;28;20686;-68
2023/03/14 02:20:12;;;;;;;1.77;1.63;;;;;;;9.41;84.01;98634.00;5075165;28;20252;-68
2023/03/14 02:22:44;;;;;;;3.30;1.50;;;;;;;9.46;83.66;98627.22;5075156;28;20581;-68
2023/03/14 02:25:31;;;;;;;2.07;1.93;;;;;;;9.45;83.47;98622.03;5075064;28;20197;-68
2023/03/14 02:27:58;;;;;;;1.47;1.47;;;;;;;9.48;83.61;98627.91;5075409;28;20193;-68
2023/03/14 02:30:30;;;;;;;5.30;1.67;;;;;;;9.49;83.42;98615.38;5075101;28;20292;-68
2023/03/14 02:33:02;;;;;;;4.30;1.67;;;;;;;9.52;83.48;98629.25;5075158;28;20209;-67
2023/03/14 02:35:34;;;;;;;1.60;1.50;;;;;;;9.47;83.39;98631.56;5093218;28;20180;-68
2023/03/14 02:38:30;;;;;;;1.50;1.50;;;;;;;9.54;83.19;98631.78;5075384;28;20182;-68
2023/03/14 02:40:58;;;;;;;1.57;1.47;;;;;;;9.57;82.67;98626.94;5075007;28;20205;-68
2023/03/14 02:43:26;;;;;;;2.03;1.83;;;;;;;9.60;82.61;98631.16;5074887;28;20217;-68
2023/03/14 02:46:00;;;;;;;2.23;1.57;;;;;;;9.68;82.37;98636.56;5076049;28;20192;-68
2023/03/14 02:48:41;;;;;;;1.97;1.77;;;;;;;9.68;82.23;98627.72;5074992;28;20194;-68
2023/03/14 02:51:10;;;;;;;2.07;1.97;;;;;;;9.65;82.54;98630.66;5075521;28;20246;-68
2023/03/14 02:53:38;;;;;;;3.83;2.03;;;;;;;9.61;82.77;98634.69;5074833;28;20285;-68
2023/03/14 02:56:09;;;;;;;5.60;1.97;;;;;;;9.55;82.76;98626.28;5075739;28;20208;-68
2023/03/14 02:58:37;;;;;;;2.73;2.07;;;;;;;9.61;83.14;98626.66;5074796;28;20301;-69
2023/03/14 03:01:14;;;;;;;3.00;2.07;;;;;;;9.55;83.08;98622.75;5077782;28;20217;-67
2023/03/14 03:03:40;;;;;;;4.33;1.80;;;;;;;9.51;83.01;98611.56;5078569;28;20198;-68
2023/03/14 03:06:07;;;;;;;5.03;1.57;;;;;;;9.50;82.88;98617.88;5078553;28;20190;-68
2023/03/14 03:08:33;;;;;;;5.37;1.67;;;;;;;9.43;82.99;98630.19;5078497;28;20207;-68
2023/03/14 03:11:00;;;;;;;5.53;1.60;;;;;;;9.44;83.02;98615.00;5078426;28;20190;-68
2023/03/14 03:13:29;;;;;;;2.73;1.90;;;;;;;9.49;82.61;98610.03;5078354;28;20241;-68
2023/03/14 03:15:56;;;;;;;1.80;1.67;;;;;;;9.49;82.13;98599.34;5078671;28;20198;-69
2023/03/14 03:18:22;;;;;;;1.77;1.77;;;;;;;9.47;82.20;98599.50;5096447;28;20216;-69
2023/03/14 03:20:49;;;;;;;4.97;1.77;;;;;;;9.49;82.21;98589.50;5078334;28;20204;-69
2023/03/14 03:23:16;;;;;;;3.87;2.40;;;;;;;9.40;82.34;98590.41;5096636;28;20719;-68
2023/03/14 03:25:47;;;;;;;4.10;1.97;;;;;;;9.48;82.15;98586.97;5096297;28;20213;-68
2023/03/14 03:28:13;;;;;;;2.20;1.63;;;;;;;9.48;81.82;98590.50;5078454;28;20189;-68
2023/03/14 03:30:41;;;;;;;2.40;2.07;;;;;;;9.52;81.51;98599.03;5078105;28;20331;-68
2023/03/14 03:33:07;;;;;;;1.87;1.80;;;;;;;9.53;81.88;98593.53;5078039;28;20296;-68
2023/03/14 03:35:34;;;;;;;1.80;1.70;;;;;;;9.61;81.48;98583.91;5078044;28;20196;-68
2023/03/14 03:38:00;;;;;;;4.20;2.57;;;;;;;9.61;81.09;98591.91;5078032;28;20236;-68
2023/03/14 03:40:27;;;;;;;1.80;1.70;;;;;;;9.63;80.92;98597.94;5078079;28;20217;-68
2023/03/14 03:42:54;;;;;;;3.90;2.07;;;;;;;9.56;81.32;98592.38;5078146;28;20704;-67
2023/03/14 03:45:21;;;;;;;2.90;2.37;;;;;;;9.62;80.98;98583.72;5077852;28;20192;-68
2023/03/14 03:47:51;;;;;;;9.57;3.47;;;;;;;9.63;80.70;98588.09;5078063;28;20228;-68
2023/03/14 03:50:18;;;;;;;5.03;2.70;;;;;;;9.62;80.87;98596.25;5078086;28;20583;-68
2023/03/14 03:52:44;;;;;;;3.10;2.63;;;;;;;9.62;80.86;98591.75;5095830;28;20311;-67
2023/03/14 03:55:10;;;;;;;7.33;2.50;;;;;;;9.65;80.91;98585.25;5096092;28;20186;-68
2023/03/14 03:57:37;;;;;;;4.40;4.00;;;;;;;9.66;80.93;98590.44;5095848;28;20193;-68
2023/03/14 04:00:05;;;;;;;4.90;2.60;;;;;;;9.62;80.93;98599.75;5077620;28;20205;-69
2023/03/14 04:02:39;;;;;;;3.20;2.00;;;;;;;9.58;81.40;98596.56;5095643;28;20213;-68
2023/03/14 04:05:08;;;;;;;2.80;2.40;;;;;;;9.58;82.09;98591.22;5078322;28;20243;-68
2023/03/14 04:07:35;;;;;;;3.50;1.90;;;;;;;9.47;82.91;98598.66;5077721;28;20197;-68
2023/03/14 04:10:02;;;;;;;2.83;2.20;;;;;;;9.39;83.68;98599.44;5077394;28;20194;-69
2023/03/14 04:12:35;;;;;;;4.60;2.20;;;;;;;9.41;83.86;98596.59;5095613;28;20585;-68
2023/03/14 04:15:15;;;;;;;1.87;1.60;;;;;;;9.40;83.95;98589.59;5077388;28;20239;-68
2023/03/14 04:17:46;;;;;;;2.17;1.97;;;;;;;9.40;84.10;98598.44;5077552;28;20715;-68
2023/03/14 04:20:14;;;;;;;4.67;2.20;;;;;;;9.29;84.49;98585.31;5077718;28;20201;-68
2023/03/14 04:22:40;;;;;;;5.20;1.90;;;;;;;9.29;84.90;98591.53;5095345;28;20550;-69
2023/03/14 04:25:09;;;;;;;2.50;1.93;;;;;;;9.27;84.40;98588.16;5077247;28;20214;-69
2023/03/14 04:27:41;;;;;;;6.47;1.97;;;;;;;9.29;84.33;98586.19;5078002;28;20205;-69
2023/03/14 04:30:16;;;;;;;2.50;1.80;;;;;;;9.26;84.14;98578.47;5077853;28;20581;-69
2023/03/14 04:32:48;;;;;;;3.63;1.60;;;;;;;9.32;83.87;98583.19;5077171;28;20301;-67
2023/03/14 04:35:15;;;;;;;2.27;2.17;;;;;;;9.31;84.25;98584.19;5077524;28;20197;-68
2023/03/14 04:37:43;;;;;;;1.27;1.27;;;;;;;9.20;84.54;98588.94;5076918;28;20194;-68
2023/03/14 04:40:11;;;;;;;1.40;1.40;;;;;;;9.13;84.84;98576.19;5076956;28;20710;-68
2023/03/14 04:42:37;;;;;;;1.43;1.20;;;;;;;9.04;85.13;98579.78;5076696;28;20216;-68
2023/03/14 04:45:05;;;;;;;2.40;1.40;;;;;;;8.97;85.06;98564.53;5076760;28;20186;-68
2023/03/14 04:47:31;;;;;;;1.40;1.40;;;;;;;8.91;85.13;98564.16;5095323;28;20235;-68
2023/03/14 04:49:58;;;;;;;1.43;1.43;;;;;;;8.95;85.72;98567.34;5077349;28;20190;-69
2023/03/14 04:52:26;;;;;;;4.07;1.23;;;;;;;8.89;86.19;98549.31;5077317;28;20214;-69
2023/03/14 04:54:52;;;;;;;1.10;1.10;;;;;;;8.90;86.64;98556.31;5076512;28;20190;-69
2023/03/14 04:57:21;;;;;;;1.40;1.40;;;;;;;8.87;86.44;98553.94;5076724;28;20679;-69
2023/03/14 04:59:48;;;;;;;1.10;1.10;;;;;;;8.80;86.76;98560.88;5076536;28;20210;-70
2023/03/14 05:02:44;;;;;;;0.90;0.90;;;;;;;8.76;87.81;98557.66;5022215;28;20302;-70
2023/03/14 05:05:29;;;;;;;2.73;0.90;;;;;;;8.59;88.37;98558.50;5095029;28;20173;-70
2023/03/14 05:08:14;;;;;;;3.50;1.07;;;;;;;8.45;89.02;98542.06;5094457;28;20208;-70
2023/03/14 05:11:10;;;;;;;2.00;1.40;;;;;;;8.37;89.25;98547.25;5039712;28;20213;-70
2023/03/14 05:13:56;;;;;;;1.60;1.50;;;;;;;8.35;89.33;98543.91;5076115;28;20201;-71
2023/03/14 05:16:34;;;;;;;4.00;1.30;;;;;;;8.38;89.74;98548.09;5094277;28;20174;-71
2023/03/14 05:19:11;;;;;;;1.30;1.30;;;;;;;8.33;89.87;98545.88;5094313;28;20681;-71
2023/03/14 05:21:57;;;;;;;1.20;1.20;;;;;;;8.25;90.04;98543.97;5075813;28;20214;-70
2023/03/14 05:24:42;;;;;;;1.10;1.10;;;;;;;8.29;90.03;98534.69;5094047;28;20205;-70
2023/03/14 05:27:43;;;;;;;1.47;1.47;;;;;;;8.20;90.83;98532.91;5012121;28;20697;-70
2023/03/14 05:30:19;;;;;;;1.20;1.20;;;;;;;8.24;90.64;98528.13;5082893;28;20224;-72
2023/03/14 05:32:59;;;;;;;1.80;1.27;;;;;;;8.21;91.10;98526.59;5076063;28;20216;-70
2023/03/14 05:35:45;;;;;;;1.70;1.50;;;;;;;8.28;91.27;98521.47;5094540;28;20204;-70
2023/03/14 05:38:31;;;;;;;1.37;1.37;;;;;;;8.27;91.47;98519.81;5076425;28;20255;-70
2023/03/14 05:41:21;;;;;;;1.93;1.93;;;;;;;8.31;91.20;98518.53;5055712;28;20193;-70
2023/03/14 05:44:17;;;;;;;2.93;1.77;;;;;;;8.30;92.02;98523.00;5056574;28;20608;-71
2023/03/14 05:46:55;;;;;;;1.80;1.80;;;;;;;8.26;92.15;98512.78;5094041;28;20193;-71
2023/03/14 05:49:40;;;;;;;1.13;1.13;;;;;;;8.22;92.19;98509.59;5094018;28;20635;-71
2023/03/14 05:52:09;;;;;;;1.40;1.40;;;;;;;8.18;92.59;98507.38;5093601;28;20581;-70
2023/03/14 05:54:45;;;;;;;1.70;1.60;;;;;;;8.14;92.74;98511.31;5075821;28;20221;-70
2023/03/14 05:57:32;;;;;;;2.00;1.90;;;;;;;8.18;92.77;98512.72;5042513;28;20204;-70
2023/03/14 06:00:19;;;;;;;2.10;2.00;;;;;;;8.15;92.73;98499.69;5075379;28;20288;-70
2023/03/14 06:02:55;;;;;;;2.87;2.77;;;;;;;8.07;93.25;98508.44;5075584;28;20213;-70
2023/03/14 06:05:27;;;;;;;4.43;4.23;;;;;;;8.15;93.04;98510.34;5076237;28;20213;-70
2023/03/14 06:07:58;;;;;;;1.50;1.50;;;;;;;8.15;92.97;98502.34;5093758;28;20209;-70
2023/03/14 06:10:26;;;;;;;4.63;4.23;;;;;;;8.19;93.11;98499.25;5075277;28;20243;-70
2023/03/14 06:12:53;;;;;;;3.83;3.17;;;;;;;8.18;93.04;98492.22;5075187;28;20213;-70
2023/03/14 06:15:20;;;;;;;2.53;2.53;;;;;;;8.15;93.21;98505.84;5075184;28;20655;-70
2023/03/14 06:17:49;;;;;;;2.20;2.10;;;;;;;8.18;93.47;98504.72;5075234;28;20203;-70
2023/03/14 06:20:16;;;;;;;3.37;1.83;;;;;;;8.19;93.69;98503.72;5075406;28;20232;-70
2023/03/14 06:22:43;;;;;;;1.57;1.47;;;;;;;8.19;93.52;98517.91;5093151;28;20245;-70
2023/03/14 06:25:11;;;;;;;2.00;1.77;;;;;;;8.17;93.86;98513.72;5075623;28;20664;-70
2023/03/14 06:27:38;;;;;;;4.27;1.90;;;;;;;8.24;93.86;98509.47;5075197;28;20193;-70
2023/03/14 06:30:05;;;;;;;2.10;2.00;;;;;;;8.15;93.98;98513.84;5075134;28;20602;-70
2023/03/14 06:32:32;;;;;;;2.27;2.27;;;;;;;8.18;94.07;98521.53;5075333;28;20691;-70
2023/03/14 06:35:03;;;;;;;2.27;2.23;;;;;;;8.24;94.19;98512.97;5076914;28;20531;-70
2023/03/14 06:37:34;;;;;;;4.80;2.53;;;;;;;8.28;94.35;98514.34;5079275;28;20192;-70
2023/03/14 06:40:01;;;;;;;2.57;2.57;;;;;;;8.39;94.04;98518.59;5078805;28;20300;-70
2023/03/14 06:43:06;;;;;;;3.73;3.60;;;;;;;8.39;94.32;98515.94;5085696;28;20299;-70
2023/03/14 06:45:35;;;;;;;3.57;3.30;;;;;;;8.43;94.45;98520.03;5079000;28;20208;-70
2023/03/14 06:48:02;;;;;;;2.03;2.03;;;;;;;8.54;93.69;98520.78;5078970;28;20276;-70
2023/03/14 06:50:37;;;;;;;3.60;3.00;;;;;;;8.54;93.94;98518.13;5079379;28;20507;-70
2023/03/14 06:53:04;;;;;;;4.10;3.50;;;;;;;8.56;94.12;98522.31;5078731;28;20220;-70
2023/03/14 06:55:32;;;;;;;2.30;2.10;;;;;;;8.61;93.66;98521.84;5079257;28;20247;-70
2023/03/14 06:57:59;;;;;;;1.63;1.63;;;;;;;8.72;94.24;98518.97;5078885;28;20206;-70
2023/03/14 07:00:26;;;;;;;5.13;3.70;;;;;;;8.73;93.60;98523.28;5079183;28;20236;-70
2023/03/14 07:02:54;;;;;;;2.10;1.83;;;;;;;8.81;94.22;98520.72;5096834;28;20251;-70
2023/03/14 07:05:26;;;;;;;3.20;1.90;;;;;;;8.83;93.91;98520.53;5096789;28;20166;-70
2023/03/14 07:07:52;;;;;;;1.70;1.23;;;;;;;8.84;93.55;98519.56;5097181;28;20252;-70
2023/03/14 07:10:19;;;;;;;1.30;1.30;;;;;;;8.87;93.72;98516.59;5078394;28;20190;-70
2023/03/14 07:12:45;;;;;;;1.60;1.60;;;;;;;8.89;93.99;98525.28;5096519;28;20208;-70
2023/03/14 07:15:12;;;;;;;0.90;0.90;;;;;;;8.94;93.90;98525.66;5078589;28;20652;-70
2023/03/14 07:18:03;;;;;;;2.00;2.00;;;;;;;9.01;93.49;98529.38;5078581;28;20280;-70
2023/03/14 07:20:32;;;;;;;0.90;0.90;;;;;;;9.00;93.41;98530.34;5078364;28;20628;-70
2023/03/14 07:22:59;;;;;;;0.97;0.97;;;;;;;9.03;92.98;98526.56;5078138;28;20709;-70
2023/03/14 07:25:35;;;;;;;1.10;1.10;;;;;;;9.05;93.19;98525.41;5078191;28;20198;-70
2023/03/14 07:28:01;;;;;;;1.40;1.40;;;;;;;9.00;93.10;98530.34;5078243;28;20193;-71
2023/03/14 07:30:28;;;;;;;1.10;1.10;;;;;;;8.96;93.37;98523.66;5078995;28;20186;-71
2023/03/14 07:32:56;;;;;;;1.17;0.80;;;;;;;9.07;93.50;98530.56;5078285;28;20735;-70
2023/03/14 07:35:23;;;;;;;1.00;1.00;;;;;;;9.11;93.09;98534.63;5078053;28;20202;-70
2023/03/14 07:37:50;;;;;;;1.20;1.20;;;;;;;9.20;93.37;98528.34;5078037;28;20606;-70
2023/03/14 07:40:22;;;;;;;1.50;1.50;;;;;;;9.28;93.08;98533.75;5078199;28;20210;-70
2023/03/14 07:42:49;;;;;;;1.50;1.50;;;;;;;9.27;92.97;98537.41;5077940;28;20210;-70
2023/03/14 07:45:25;;;;;;;1.43;1.43;;;;;;;9.26;93.22;98537.56;5077795;28;20190;-70
2023/03/14 07:47:57;;;;;;;2.20;1.83;;;;;;;9.35;92.95;98542.81;5095913;28;20266;-70
2023/03/14 07:50:27;;;;;;;2.20;2.10;;;;;;;9.40;92.77;98542.34;5095947;28;20178;-70
2023/03/14 07:52:54;;;;;;;1.73;1.73;;;;;;;9.43;92.61;98538.50;5096124;28;20684;-70
2023/03/14 07:55:21;;;;;;;2.77;1.67;;;;;;;9.45;92.55;98539.19;5096064;28;20565;-71
2023/03/14 07:57:47;;;;;;;1.60;1.60;;;;;;;9.45;92.44;98539.19;5095756;28;20714;-71
2023/03/14 08:00:14;;;;;;;2.30;2.23;;;;;;;9.45;92.32;98537.34;5095688;28;20202;-71
2023/03/14 08:02:41;;;;;;;1.90;1.80;;;;;;;9.43;92.51;98542.00;5096157;28;20233;-70
2023/03/14 08:05:09;;;;;;;3.00;2.20;;;;;;;9.44;92.54;98548.22;5096198;28;20297;-71
2023/03/14 08:07:35;;;;;;;1.70;1.70;;;;;;;9.46;93.00;98547.06;5095514;28;20178;-71
2023/03/14 08:10:03;;;;;;;1.70;1.70;;;;;;;9.51;92.82;98546.59;5096119;28;20178;-71
2023/03/14 08:12:29;;;;;;;1.80;1.70;;;;;;;9.55;92.68;98551.47;5095976;28;20212;-70
2023/03/14 08:14:56;;;;;;;1.93;1.50;;;;;;;9.61;93.00;98551.81;5095688;28;20197;-72
2023/03/14 08:17:22;;;;;;;1.70;1.60;;;;;;;9.67;93.21;98551.19;5095434;28;20190;-71
2023/03/14 08:19:48;;;;;;;2.97;1.97;;;;;;;9.74;92.81;98550.38;5095567;28;20214;-71
2023/03/14 08:22:15;;;;;;;2.83;2.83;;;;;;;9.80;92.76;98557.78;5095247;28;20707;-71
2023/03/14 08:24:45;;;;;;;3.33;3.33;;;;;;;9.82;92.69;98559.44;5095164;28;20247;-71
2023/03/14 08:27:14;;;;;;;3.70;3.37;;;;;;;9.86;92.77;98560.81;5095513;28;20192;-71
2023/03/14 08:29:41;;;;;;;3.50;3.50;;;;;;;9.89;92.83;98547.09;5095158;28;20192;-71
2023/03/14 08:32:08;;;;;;;4.37;4.27;;;;;;;9.90;92.22;98563.00;5094968;28;20210;-70
2023/03/14 08:34:34;;;;;;;4.40;4.27;;;;;;;9.99;92.67;98556.69;5095076;28;20182;-70
2023/03/14 08:37:01;;;;;;;4.30;4.03;;;;;;;10.02;92.72;98566.25;5095241;28;20671;-70
2023/03/14 08:39:31;;;;;;;5.47;5.37;;;;;;;10.02;91.84;98556.38;5095440;28;20178;-70
2023/03/14 08:41:58;;;;;;;10.07;6.20;;;;;;;10.05;91.77;98557.06;5094741;28;20220;-70
2023/03/14 08:44:24;;;;;;;6.23;6.13;;;;;;;10.08;91.67;98554.91;5094799;28;20743;-70
2023/03/14 08:46:50;;;;;;;4.97;4.70;;;;;;;9.91;90.90;98548.66;5094784;28;20186;-71
2023/03/14 08:49:17;;;;;;;5.53;5.43;;;;;;;9.96;90.77;98551.69;5094714;28;20190;-71
2023/03/14 08:51:43;;;;;;;9.03;6.13;;;;;;;9.87;90.83;98557.97;5094944;28;20198;-70
2023/03/14 08:54:10;;;;;;;5.97;5.87;;;;;;;9.80;91.60;98559.63;5094971;28;20189;-70
2023/03/14 08:56:39;;;;;;;6.23;5.93;;;;;;;9.88;91.63;98561.50;5094669;28;20602;-70
2023/03/14 08:59:06;;;;;;;6.80;6.60;;;;;;;9.95;92.30;98566.03;5093767;28;20216;-70
2023/03/14 09:01:32;;;;;;;11.77;7.10;;;;;;;9.95;92.22;98571.38;5094430;28;20301;-70
2023/03/14 09:03:59;;;;;;;7.80;7.50;;;;;;;9.84;91.86;98563.66;5095021;28;20210;-70
2023/03/14 09:06:25;;;;;;;8.03;7.53;;;;;;;9.78;92.11;98565.13;5094455;28;20184;-70
2023/03/14 09:08:51;;;;;;;8.57;8.00;;;;;;;9.76;92.17;98569.78;5094685;28;20182;-70
2023/03/14 09:11:18;;;;;;;7.30;7.00;;;;;;;9.80;92.17;98581.00;5094204;28;20187;-70
2023/03/14 09:13:45;;;;;;;7.90;6.37;;;;;;;9.79;91.88;98577.50;5094278;28;20192;-70
2023/03/14 09:16:11;;;;;;;5.50;5.30;;;;;;;9.72;92.00;98587.16;5094776;28;20186;-70
2023/03/14 09:18:37;;;;;;;4.13;3.93;;;;;;;9.71;91.63;98600.66;5094264;28;20239;-71
2023/03/14 09:21:04;;;;;;;4.77;4.67;;;;;;;9.68;91.47;98607.16;5094376;28;20202;-71
2023/03/14 09:23:30;;;;;;;4.43;4.33;;;;;;;9.62;91.91;98639.00;5094048;28;20216;-70
2023/03/14 09:25:59;;;;;;;1.23;1.23;;;;;;;9.00;87.57;98655.84;5094098;28;20564;-71
2023/03/14 09:28:26;;;;;;;1.40;1.40;;;;;;;8.82;88.43;98677.19;5094009;28;20614;-71
2023/03/14 09:30:52;;;;;;;1.40;1.40;;;;;;;8.51;87.52;98692.66;5094019;28;20194;-71
2023/03/14 09:33:18;;;;;;;1.50;1.50;;;;;;;8.18;86.44;98702.03;5093869;28;20206;-71
2023/03/14 09:35:45;;;;;;;1.20;1.20;;;;;;;7.98;87.02;98712.75;5093912;28;20189;-71
2023/03/14 09:38:11;;;;;;;1.30;1.30;;;;;;;7.84;87.99;98716.69;5093782;28;20234;-71
2023/03/14 09:40:40;;;;;;;1.10;1.10;;;;;;;7.82;88.96;98731.13;5093732;28;20675;-71
2023/03/14 09:43:14;;;;;;;1.70;1.70;;;;;;;7.73;88.98;98735.47;5093635;28;20210;-71
2023/03/14 09:45:43;;;;;;;1.87;1.77;;;;;;;7.69;89.56;98747.44;5093978;28;20615;-71
2023/03/14 09:48:35;;;;;;;2.23;2.23;;;;;;;7.65;89.75;98762.84;5093963;28;20189;-71
2023/03/14 09:51:11;;;;;;;3.83;3.20;;;;;;;7.66;90.06;98780.53;5089928;28;20567;-71
2023/03/14 09:53:46;;;;;;;2.70;1.90;;;;;;;7.59;90.06;98784.72;5093578;28;20263;-71
2023/03/14 09:56:22;;;;;;;2.63;2.63;;;;;;;7.59;90.90;98802.50;5093846;28;20260;-71
2023/03/14 09:58:54;;;;;;;10.90;1.73;;;;;;;7.58;90.46;98817.66;5094175;28;20182;-71
2023/03/14 10:01:25;;;;;;;2.07;1.97;;;;;;;7.60;90.15;98817.53;5093909;28;20194;-71
2023/03/14 10:03:55;;;;;;;1.70;1.70;;;;;;;7.61;89.77;98830.72;5093778;28;20180;-71
2023/03/14 10:06:25;;;;;;;1.53;1.53;;;;;;;7.61;89.89;98838.72;5093728;28;20563;-71
2023/03/14 10:08:52;;;;;;;2.00;2.00;;;;;;;7.60;89.59;98849.50;5093287;28;20181;-71
2023/03/14 10:11:20;;;;;;;1.83;1.83;;;;;;;7.57;88.90;98863.94;5093280;28;20188;-70
2023/03/14 10:14:08;;;;;;;1.50;1.50;;;;;;;7.53;88.27;98872.34;5093664;28;20550;-70
2023/03/14 10:16:40;;;;;;;2.37;1.40;;;;;;;7.45;89.23;98878.34;5093421;28;20182;-71
2023/03/14 10:19:10;;;;;;;1.47;1.47;;;;;;;7.39;90.18;98885.03;5093682;28;20219;-71
2023/03/14 10:21:39;;;;;;;1.73;1.73;;;;;;;7.30;90.06;98901.00;5093752;28;20220;-70
2023/03/14 10:24:09;;;;;;;1.07;1.07;;;;;;;7.13;89.98;98905.97;5093693;28;20196;-71
2023/03/14 10:26:36;;;;;;;1.90;1.80;;;;;;;7.05;90.45;98921.78;5093847;28;20187;-71
2023/03/14 10:29:10;;;;;;;2.30;1.67;;;;;;;6.99;90.61;98935.59;5093574;28;20204;-71
2023/03/14 10:32:07;;;;;;;1.50;1.50;;;;;;;6.99;90.50;98946.22;5093814;28;20558;-71
2023/03/14 10:34:38;;;;;;;1.40;1.40;;;;;;;6.96;89.72;98955.31;5093145;28;20192;-71
2023/03/14 10:37:21;;;;;;;1.80;1.70;;;;;;;7.00;90.29;98964.75;5093364;28;20544;-71
2023/03/14 10:39:50;;;;;;;1.63;1.53;;;;;;;6.96;90.06;98981.94;5093164;28;20188;-71
2023/03/14 10:42:24;;;;;;;2.23;2.13;;;;;;;6.91;89.48;99000.13;5093113;28;20543;-71
2023/03/14 10:44:56;;;;;;;1.00;1.00;;;;;;;6.87;88.77;99020.00;5093283;28;20181;-71
2023/03/14 10:47:26;;;;;;;2.33;2.33;;;;;;;6.74;86.89;99036.13;5093351;28;20583;-71
2023/03/14 10:49:52;;;;;;;2.33;2.03;;;;;;;6.66;85.90;99053.72;5093019;28;20215;-72
2023/03/14 10:52:27;;;;;;;1.77;1.77;;;;;;;6.53;85.83;99064.50;5093204;28;20202;-71
2023/03/14 10:55:14;;;;;;;2.70;2.63;;;;;;;6.66;86.50;99090.97;5093018;28;20190;-71
2023/03/14 10:57:42;;;;;;;2.30;2.30;;;;;;;6.48;84.16;99094.13;5092938;28;20207;-71
2023/03/14 11:00:19;;;;;;;2.57;1.73;;;;;;;6.42;84.04;99115.91;5093425;28;20183;-71
2023/03/14 11:03:03;;;;;;;1.50;1.40;;;;;;;6.18;82.95;99132.84;5092879;28;20221;-71
2023/03/14 11:05:39;;;;;;;1.83;1.83;;;;;;;6.17;83.08;99152.41;5093223;28;20178;-71
2023/03/14 11:08:18;;;;;;;2.20;2.10;;;;;;;6.32;84.96;99166.31;5093173;28;20200;-71
2023/03/14 11:10:49;;;;;;;2.20;2.20;;;;;;;6.32;82.97;99178.75;5092845;28;20178;-71
2023/03/14 11:13:26;;;;;;;1.30;1.30;;;;;;;6.31;80.96;99185.88;5074674;28;20695;-71
2023/03/14 11:16:05;;;;;;;1.33;1.33;;;;;;;6.26;80.49;99197.88;5092833;28;20166;-71
2023/03/14 11:19:00;;;;;;;1.50;1.50;;;;;;;6.25;81.49;99212.97;5092794;28;20622;-71
2023/03/14 11:21:46;;;;;;;1.30;1.20;;;;;;;6.26;81.54;99227.09;5094643;28;20667;-71
2023/03/14 11:24:43;;;;;;;1.40;1.40;;;;;;;6.37;82.39;99233.28;5096348;28;20193;-71
2023/03/14 11:27:17;;;;;;;5.40;2.13;;;;;;;6.49;82.93;99249.22;5096754;28;20174;-71
2023/03/14 11:29:51;;;;;;;1.90;1.90;;;;;;;6.28;79.87;99262.41;5096690;28;20208;-71
2023/03/14 11:32:44;;;;;;;1.43;1.43;;;;;;;6.38;80.09;99272.19;5096378;28;20213;-71
2023/03/14 11:35:20;;;;;;;1.47;1.37;;;;;;;6.42;79.55;99285.22;5096564;28;20543;-72
2023/03/14 11:37:54;;;;;;;2.20;2.20;;;;;;;6.34;79.14;99296.47;5096461;28;20172;-71
2023/03/14 11:40:23;;;;;;;1.67;1.67;;;;;;;6.28;79.45;99295.13;5096595;28;20177;-71
2023/03/14 11:42:58;;;;;;;3.00;1.70;;;;;;;6.25;80.26;99303.34;5096299;28;20209;-71
2023/03/14 11:45:46;;;;;;;1.63;1.60;;;;;;;6.18;81.03;99324.25;5096245;28;20584;-71
2023/03/14 11:48:18;;;;;;;2.37;2.37;;;;;;;6.06;81.65;99327.00;5096482;28;20178;-71
2023/03/14 11:50:49;;;;;;;2.20;2.10;;;;;;;6.01;82.10;99327.34;5095799;28;20186;-71
2023/03/14 11:53:22;;;;;;;1.83;1.73;;;;;;;5.96;81.77;99343.63;5077920;28;20574;-71
2023/03/14 11:55:49;;;;;;;2.60;2.60;;;;;;;5.92;81.88;99346.59;5096100;28;20170;-71
2023/03/14 11:58:24;;;;;;;1.70;1.70;;;;;;;5.88;81.50;99359.25;5095678;28;20183;-71
2023/03/14 12:00:54;;;;;;;1.70;1.60;;;;;;;5.80;83.34;99366.94;5095821;28;20300;-71